createdAt,value
2022-10-25T00:00:36.340Z,99.90
2022-10-25T00:03:03.131Z,99.90
2022-10-25T00:05:29.985Z,99.90
2022-10-25T00:07:56.791Z,99.90
2022-10-25T00:10:25.685Z,99.90
2022-10-25T00:12:52.745Z,99.90
2022-10-25T00:15:19.684Z,99.90
2022-10-25T00:17:46.821Z,99.90
2022-10-25T00:20:13.994Z,99.90
2022-10-25T00:22:40.826Z,99.90
2022-10-25T00:25:08.179Z,99.90
2022-10-25T00:27:35.135Z,99.90
2022-10-25T00:30:02.217Z,99.90
2022-10-25T00:32:29.179Z,99.90
2022-10-25T00:34:56.006Z,99.90
2022-10-25T00:37:22.977Z,99.90
2022-10-25T00:39:49.783Z,99.90
2022-10-25T00:42:24.942Z,99.90
2022-10-25T00:44:53.909Z,99.90
2022-10-25T00:47:20.838Z,99.90
2022-10-25T00:49:49.914Z,99.90
2022-10-25T00:52:16.725Z,99.90
2022-10-25T00:54:46.432Z,99.90
2022-10-25T00:57:56.219Z,99.90
2022-10-25T01:00:23.008Z,99.90
2022-10-25T01:02:49.965Z,99.90
2022-10-25T01:05:17.028Z,99.90
2022-10-25T01:07:44.359Z,99.90
2022-10-25T01:10:11.340Z,99.90
2022-10-25T01:12:38.186Z,99.90
2022-10-25T01:15:05.406Z,99.90
2022-10-25T01:17:42.030Z,99.90
2022-10-25T01:20:18.281Z,99.90
2022-10-25T01:23:03.954Z,99.90
2022-10-25T01:25:40.027Z,99.90
2022-10-25T01:28:16.894Z,99.90
2022-10-25T01:30:49.671Z,99.90
2022-10-25T01:33:38.619Z,99.90
2022-10-25T01:36:46.760Z,99.90
2022-10-25T01:39:18.094Z,99.90
2022-10-25T01:42:05.306Z,99.90
2022-10-25T01:45:08.972Z,99.90
2022-10-25T01:47:45.757Z,99.90
2022-10-25T01:50:15.531Z,99.90
2022-10-25T01:52:42.384Z,99.90
2022-10-25T01:55:11.349Z,99.90
2022-10-25T01:57:56.612Z,99.90
2022-10-25T02:00:23.429Z,99.90
2022-10-25T02:03:05.342Z,99.90
2022-10-25T02:05:37.894Z,99.90
2022-10-25T02:08:23.681Z,99.90
2022-10-25T02:11:08.364Z,99.90
2022-10-25T02:13:45.788Z,99.90
2022-10-25T02:16:15.549Z,99.90
2022-10-25T02:18:44.782Z,99.90
2022-10-25T02:21:11.636Z,99.90
2022-10-25T02:23:38.555Z,99.90
2022-10-25T02:26:06.544Z,99.90
2022-10-25T02:28:33.415Z,99.90
2022-10-25T02:31:00.269Z,99.90
2022-10-25T02:33:27.101Z,99.90
2022-10-25T02:36:12.468Z,99.90
2022-10-25T02:38:39.648Z,99.90
2022-10-25T02:41:06.522Z,99.90
2022-10-25T02:43:33.335Z,99.90
2022-10-25T02:46:00.264Z,99.90
2022-10-25T02:48:27.128Z,99.90
2022-10-25T02:50:53.931Z,99.90
2022-10-25T02:53:20.830Z,99.90
2022-10-25T02:55:47.686Z,99.90
2022-10-25T02:58:14.489Z,99.90
2022-10-25T03:00:42.143Z,99.90
2022-10-25T03:03:09.079Z,99.90
2022-10-25T03:05:35.885Z,99.90
2022-10-25T03:08:02.720Z,99.90
2022-10-25T03:10:29.546Z,99.90
2022-10-25T03:12:56.418Z,99.90
2022-10-25T03:15:23.243Z,99.90
2022-10-25T03:17:50.191Z,99.90
2022-10-25T03:20:17.091Z,99.90
2022-10-25T03:22:43.932Z,99.90
2022-10-25T03:25:10.748Z,99.90
2022-10-25T03:27:37.608Z,99.90
2022-10-25T03:30:04.705Z,99.90
2022-10-25T03:32:31.512Z,99.90
2022-10-25T03:34:58.337Z,99.90
2022-10-25T03:37:25.173Z,99.90
2022-10-25T03:39:54.196Z,99.90
2022-10-25T03:42:21.020Z,99.90
2022-10-25T03:44:48.089Z,99.90
2022-10-25T03:47:14.940Z,99.90
2022-10-25T03:49:41.782Z,99.90
2022-10-25T03:52:08.634Z,99.90
2022-10-25T03:54:35.452Z,99.90
2022-10-25T03:57:02.340Z,99.90
2022-10-25T03:59:29.167Z,99.90
2022-10-25T04:01:56.020Z,99.90
2022-10-25T04:04:22.898Z,99.90
2022-10-25T04:06:49.706Z,99.90
2022-10-25T04:09:16.568Z,99.90
2022-10-25T04:11:43.400Z,99.90
2022-10-25T04:14:10.296Z,99.90
2022-10-25T04:16:37.096Z,99.90
2022-10-25T04:19:03.930Z,99.90
2022-10-25T04:21:30.758Z,99.90
2022-10-25T04:23:59.381Z,99.90
2022-10-25T04:26:29.505Z,99.90
2022-10-25T04:28:56.743Z,99.90
2022-10-25T04:31:23.985Z,99.90
2022-10-25T04:33:51.639Z,99.90
2022-10-25T04:36:18.578Z,99.90
2022-10-25T04:38:51.667Z,99.90
2022-10-25T04:41:18.867Z,99.90
2022-10-25T04:43:45.840Z,99.90
2022-10-25T04:46:12.918Z,99.90
2022-10-25T04:48:40.416Z,99.90
2022-10-25T04:51:07.592Z,99.90
2022-10-25T04:53:34.433Z,99.90
2022-10-25T04:56:03.097Z,99.90
2022-10-25T04:58:31.481Z,99.90
2022-10-25T05:01:06.579Z,99.90
2022-10-25T05:03:33.671Z,99.90
2022-10-25T05:06:10.364Z,99.90
2022-10-25T05:08:40.112Z,99.90
2022-10-25T05:11:07.829Z,99.90
2022-10-25T05:13:35.692Z,99.90
2022-10-25T05:16:02.598Z,99.90
2022-10-25T05:18:30.317Z,99.90
2022-10-25T05:21:00.306Z,99.90
2022-10-25T05:23:27.484Z,99.90
2022-10-25T05:26:20.805Z,99.90
2022-10-25T05:28:48.443Z,99.90
2022-10-25T05:31:27.777Z,99.90
2022-10-25T05:33:59.858Z,99.90
2022-10-25T05:36:29.488Z,99.90
2022-10-25T05:38:56.477Z,99.90
2022-10-25T05:41:23.363Z,99.90
2022-10-25T05:43:50.176Z,99.90
2022-10-25T05:46:23.504Z,99.90
2022-10-25T05:48:50.897Z,99.90
2022-10-25T05:51:33.101Z,99.90
2022-10-25T05:54:02.931Z,99.90
2022-10-25T05:56:30.467Z,99.90
2022-10-25T05:58:57.546Z,99.90
2022-10-25T06:01:26.344Z,99.90
2022-10-25T06:03:54.487Z,99.90
2022-10-25T06:06:21.518Z,99.90
2022-10-25T06:08:48.492Z,99.90
2022-10-25T06:11:19.433Z,99.90
2022-10-25T06:13:46.461Z,99.90
2022-10-25T06:16:15.080Z,99.90
2022-10-25T06:18:41.984Z,99.90
2022-10-25T06:21:16.313Z,99.90
2022-10-25T06:23:43.445Z,99.90
2022-10-25T06:26:12.198Z,99.90
2022-10-25T06:28:39.126Z,99.90
2022-10-25T06:31:07.915Z,99.90
2022-10-25T06:33:35.170Z,99.90
2022-10-25T06:36:05.529Z,99.90
2022-10-25T06:38:32.438Z,99.90
2022-10-25T06:41:04.201Z,99.90
2022-10-25T06:43:31.144Z,99.90
2022-10-25T06:45:57.964Z,99.90
2022-10-25T06:48:24.823Z,99.90
2022-10-25T06:51:02.640Z,99.90
2022-10-25T06:53:29.619Z,99.90
2022-10-25T06:56:04.594Z,99.90
2022-10-25T06:58:33.001Z,99.90
2022-10-25T07:01:14.041Z,99.90
2022-10-25T07:03:41.303Z,99.90
2022-10-25T07:06:12.905Z,99.90
2022-10-25T07:08:41.494Z,99.90
2022-10-25T07:11:09.711Z,99.90
2022-10-25T07:13:36.582Z,99.90
2022-10-25T07:16:08.533Z,99.90
2022-10-25T07:18:35.648Z,99.90
2022-10-25T07:21:03.593Z,99.90
2022-10-25T07:23:30.567Z,99.90
2022-10-25T07:25:57.871Z,99.90
2022-10-25T07:28:24.721Z,99.90
2022-10-25T07:30:51.610Z,99.90
2022-10-25T07:33:19.314Z,99.90
2022-10-25T07:35:58.947Z,99.90
2022-10-25T07:38:33.906Z,99.90
2022-10-25T07:41:00.740Z,99.90
2022-10-25T07:43:27.703Z,99.90
2022-10-25T07:45:54.733Z,99.90
2022-10-25T07:48:21.985Z,99.90
2022-10-25T07:50:48.923Z,99.90
2022-10-25T07:53:15.796Z,99.90
2022-10-25T07:55:42.624Z,99.90
2022-10-25T07:58:10.959Z,99.90
2022-10-25T08:00:37.844Z,99.90
2022-10-25T08:03:04.915Z,99.90
2022-10-25T08:05:31.830Z,99.90
2022-10-25T08:07:58.679Z,99.90
2022-10-25T08:10:25.537Z,99.90
2022-10-25T08:12:52.766Z,99.90
2022-10-25T08:15:19.627Z,99.90
2022-10-25T08:17:46.744Z,99.90
2022-10-25T08:20:13.992Z,99.90
2022-10-25T08:22:40.875Z,99.90
2022-10-25T08:25:07.988Z,99.90
2022-10-25T08:27:34.830Z,99.90
2022-10-25T08:30:01.702Z,99.90
2022-10-25T08:32:29.740Z,99.90
2022-10-25T08:34:56.585Z,99.90
2022-10-25T08:37:23.502Z,99.90
2022-10-25T08:39:53.518Z,99.30
2022-10-25T08:42:57.154Z,99.80
2022-10-25T08:45:49.545Z,99.80
2022-10-25T08:48:17.884Z,98.40
2022-10-25T08:50:45.898Z,97.50
2022-10-25T08:53:22.617Z,95.70
2022-10-25T08:56:04.971Z,94.50
2022-10-25T08:58:43.317Z,92.70
2022-10-25T09:01:15.209Z,91.80
2022-10-25T09:03:42.131Z,90.90
2022-10-25T09:06:40.091Z,91.20
2022-10-25T09:09:23.216Z,92.20
2022-10-25T09:12:11.941Z,92.70
2022-10-25T09:14:41.689Z,93.20
2022-10-25T09:17:18.095Z,95.60
2022-10-25T09:20:07.322Z,94.80
2022-10-25T09:23:00.954Z,96.20
2022-10-25T09:25:34.415Z,94.40
2022-10-25T09:28:08.566Z,93.10
2022-10-25T09:30:41.517Z,91.60
2022-10-25T09:35:54.985Z,90.30
2022-10-25T09:38:42.725Z,88.70
2022-10-25T09:41:19.812Z,85.80
2022-10-25T09:44:10.094Z,87.10
2022-10-25T09:46:55.130Z,86.50
2022-10-25T09:49:43.428Z,85.10
2022-10-25T09:52:29.311Z,84.90
2022-10-25T09:55:19.505Z,85.00
2022-10-25T09:57:46.657Z,84.70
2022-10-25T10:00:14.664Z,85.10
2022-10-25T10:02:41.637Z,87.20
2022-10-25T10:05:20.024Z,87.10
2022-10-25T10:07:47.993Z,88.20
2022-10-25T10:10:20.295Z,88.90
2022-10-25T10:12:47.475Z,90.10
2022-10-25T10:15:38.813Z,90.30
2022-10-25T10:18:28.146Z,91.20
2022-10-25T10:21:10.350Z,91.70
2022-10-25T10:23:43.257Z,92.00
2022-10-25T10:26:22.038Z,92.00
2022-10-25T10:28:50.162Z,93.40
2022-10-25T10:31:17.299Z,93.80
2022-10-25T10:33:50.842Z,94.30
2022-10-25T10:36:28.895Z,95.70
2022-10-25T10:38:57.259Z,96.30
2022-10-25T10:41:25.485Z,96.90
2022-10-25T10:44:06.118Z,97.20
2022-10-25T10:46:32.932Z,97.10
2022-10-25T10:48:59.810Z,97.50
2022-10-25T10:51:43.952Z,97.30
2022-10-25T10:54:24.661Z,97.20
2022-10-25T10:57:02.558Z,98.40
2022-10-25T10:59:40.892Z,98.80
2022-10-25T11:02:25.544Z,98.40
2022-10-25T11:04:54.910Z,98.00
2022-10-25T11:07:28.614Z,98.00
2022-10-25T11:10:17.650Z,98.40
2022-10-25T11:12:44.595Z,98.90
2022-10-25T11:15:12.254Z,99.10
2022-10-25T11:17:43.344Z,98.20
2022-10-25T11:20:28.161Z,95.70
2022-10-25T11:23:08.309Z,95.10
2022-10-25T11:25:39.454Z,94.20
2022-10-25T11:28:27.877Z,93.50
2022-10-25T11:31:06.970Z,93.40
2022-10-25T11:33:55.190Z,92.70
2022-10-25T11:36:34.694Z,94.60
2022-10-25T11:39:10.772Z,95.00
2022-10-25T11:41:56.284Z,95.70
2022-10-25T11:44:47.308Z,97.00
2022-10-25T11:47:24.684Z,95.20
2022-10-25T11:49:57.044Z,93.20
2022-10-25T11:52:52.060Z,92.30
2022-10-25T11:55:34.248Z,91.60
2022-10-25T11:58:24.332Z,91.30
2022-10-25T12:00:53.914Z,91.30
2022-10-25T12:03:51.584Z,90.20
2022-10-25T12:06:47.719Z,87.60
2022-10-25T12:09:39.084Z,86.10
2022-10-25T12:12:09.795Z,84.80
2022-10-25T12:14:44.797Z,83.80
2022-10-25T12:17:31.319Z,89.20
2022-10-25T12:19:59.951Z,91.10
2022-10-25T12:22:32.419Z,91.90
2022-10-25T12:25:01.670Z,91.50
2022-10-25T12:27:29.033Z,91.20
2022-10-25T12:30:06.964Z,90.10
2022-10-25T12:32:44.887Z,91.10
2022-10-25T12:35:30.830Z,92.30
2022-10-25T12:38:00.645Z,93.50
2022-10-25T12:40:28.939Z,93.20
2022-10-25T12:42:57.567Z,94.10
2022-10-25T12:45:36.503Z,93.40
2022-10-25T12:48:06.412Z,94.20
2022-10-25T12:50:42.132Z,95.70
2022-10-25T12:53:21.188Z,96.60
2022-10-25T12:56:00.051Z,96.60
2022-10-25T12:58:45.168Z,96.30
2022-10-25T13:01:49.677Z,96.80
2022-10-25T13:04:41.237Z,96.70
2022-10-25T13:07:08.246Z,96.60
2022-10-25T13:09:36.138Z,97.50
2022-10-25T13:12:16.075Z,98.10
2022-10-25T13:15:00.967Z,97.50
2022-10-25T13:17:27.822Z,97.60
2022-10-25T13:20:19.714Z,97.80
2022-10-25T13:22:46.597Z,99.00
2022-10-25T13:25:13.394Z,98.80
2022-10-25T13:28:00.836Z,99.10
2022-10-25T13:30:32.013Z,99.20
2022-10-25T13:33:28.445Z,98.80
2022-10-25T13:35:56.085Z,98.90
2022-10-25T13:38:24.472Z,99.20
2022-10-25T13:41:23.912Z,99.50
2022-10-25T13:43:59.292Z,99.30
2022-10-25T13:46:46.413Z,99.60
2022-10-25T13:49:36.946Z,99.50
2022-10-25T13:52:27.925Z,99.70
2022-10-25T13:54:55.981Z,99.90
2022-10-25T13:57:50.594Z,99.90
2022-10-25T14:00:40.657Z,99.90
2022-10-25T14:03:13.831Z,99.90
2022-10-25T14:05:55.953Z,99.90
2022-10-25T14:08:23.086Z,99.90
2022-10-25T14:10:49.904Z,99.90
2022-10-25T14:13:25.218Z,99.90
2022-10-25T14:16:03.233Z,99.90
2022-10-25T14:18:30.147Z,99.90
2022-10-25T14:20:59.488Z,99.90
2022-10-25T14:23:29.981Z,99.90
2022-10-25T14:25:58.462Z,99.90
2022-10-25T14:28:29.408Z,99.90
2022-10-25T14:30:57.161Z,99.90
2022-10-25T14:33:27.766Z,99.90
2022-10-25T14:36:07.944Z,99.90
2022-10-25T14:38:54.898Z,99.90
2022-10-25T14:41:33.166Z,99.90
2022-10-25T14:44:00.130Z,99.90
2022-10-25T14:46:27.881Z,99.90
2022-10-25T14:48:56.753Z,99.90
2022-10-25T14:51:26.885Z,99.90
2022-10-25T14:54:12.571Z,99.90
2022-10-25T14:56:45.593Z,99.90
2022-10-25T14:59:26.685Z,99.90
2022-10-25T15:01:59.346Z,99.90
2022-10-25T15:04:34.468Z,99.90
2022-10-25T15:07:02.177Z,99.90
2022-10-25T15:09:44.348Z,99.90
2022-10-25T15:12:11.160Z,99.90
2022-10-25T15:14:38.027Z,99.90
2022-10-25T15:17:06.434Z,99.90
2022-10-25T15:19:33.264Z,99.90
2022-10-25T15:22:10.804Z,99.90
2022-10-25T15:24:45.086Z,99.90
2022-10-25T15:27:25.732Z,99.90
2022-10-25T15:29:52.558Z,99.90
2022-10-25T15:32:21.351Z,99.90
2022-10-25T15:34:52.950Z,99.90
2022-10-25T15:37:20.872Z,99.90
2022-10-25T15:39:48.820Z,99.90
2022-10-25T15:42:16.124Z,99.90
2022-10-25T15:44:43.085Z,99.90
2022-10-25T15:47:35.649Z,99.90
2022-10-25T15:50:03.626Z,99.90
2022-10-25T15:52:30.491Z,99.90
2022-10-25T15:54:57.337Z,99.90
2022-10-25T15:57:24.232Z,99.90
2022-10-25T15:59:51.073Z,99.90
2022-10-25T16:02:27.201Z,99.90
2022-10-25T16:04:54.276Z,99.90
2022-10-25T16:07:21.145Z,99.90
2022-10-25T16:09:47.962Z,99.90
2022-10-25T16:12:20.718Z,99.90
2022-10-25T16:14:48.508Z,99.90
2022-10-25T16:17:15.351Z,99.90
2022-10-25T16:19:42.175Z,99.90
2022-10-25T16:22:09.008Z,99.90
2022-10-25T16:24:35.844Z,99.90
2022-10-25T16:27:02.749Z,99.90
2022-10-25T16:29:29.972Z,99.90
2022-10-25T16:31:56.988Z,99.90
2022-10-25T16:34:23.826Z,99.90
2022-10-25T16:36:50.866Z,99.90
2022-10-25T16:39:17.765Z,99.90
2022-10-25T16:41:45.303Z,99.90
2022-10-25T16:44:12.790Z,99.90
2022-10-25T16:46:39.847Z,99.90
2022-10-25T16:49:06.845Z,99.90
2022-10-25T16:51:36.406Z,99.90
2022-10-25T16:54:03.454Z,99.90
2022-10-25T16:56:30.285Z,99.90
2022-10-25T16:58:57.114Z,99.90
2022-10-25T17:01:34.030Z,99.90
2022-10-25T17:04:01.722Z,99.90
2022-10-25T17:06:40.713Z,99.90
2022-10-25T17:09:07.953Z,99.90
2022-10-25T17:11:34.796Z,99.90
2022-10-25T17:14:01.604Z,99.90
2022-10-25T17:16:28.466Z,99.90
2022-10-25T17:18:55.396Z,99.90
2022-10-25T17:21:22.803Z,99.90
2022-10-25T17:23:49.635Z,99.90
2022-10-25T17:26:16.491Z,99.90
2022-10-25T17:28:44.487Z,99.90
2022-10-25T17:31:12.417Z,99.90
2022-10-25T17:33:39.288Z,99.90
2022-10-25T17:36:13.602Z,99.90
2022-10-25T17:38:40.827Z,99.90
2022-10-25T17:41:07.961Z,99.90
2022-10-25T17:43:35.926Z,99.90
2022-10-25T17:46:04.178Z,99.90
2022-10-25T17:48:31.069Z,99.90
2022-10-25T17:51:05.931Z,99.90
2022-10-25T17:53:32.844Z,99.90
2022-10-25T17:56:09.555Z,99.90
2022-10-25T17:58:36.524Z,99.90
2022-10-25T18:01:04.757Z,99.90
2022-10-25T18:03:31.759Z,99.90
2022-10-25T18:06:02.830Z,99.90
2022-10-25T18:08:29.688Z,99.90
2022-10-25T18:10:56.542Z,99.90
2022-10-25T18:13:25.061Z,99.90
2022-10-25T18:15:52.179Z,99.90
2022-10-25T18:18:19.520Z,99.90
2022-10-25T18:20:51.369Z,99.90
2022-10-25T18:23:18.628Z,99.90
2022-10-25T18:25:52.519Z,99.90
2022-10-25T18:28:19.378Z,99.90
2022-10-25T18:30:46.207Z,99.90
2022-10-25T18:33:14.885Z,99.90
2022-10-25T18:35:42.004Z,99.90
2022-10-25T18:38:08.886Z,99.90
2022-10-25T18:40:36.051Z,99.90
2022-10-25T18:43:02.871Z,99.90
2022-10-25T18:45:29.789Z,99.90
2022-10-25T18:47:59.051Z,99.90
2022-10-25T18:50:26.565Z,99.90
2022-10-25T18:52:53.419Z,99.90
2022-10-25T18:55:21.628Z,99.90
2022-10-25T18:57:48.726Z,99.90
2022-10-25T19:00:16.428Z,99.90
2022-10-25T19:02:43.403Z,99.90
2022-10-25T19:05:10.921Z,99.90
2022-10-25T19:07:37.735Z,99.90
2022-10-25T19:10:05.082Z,99.90
2022-10-25T19:12:31.943Z,99.90
2022-10-25T19:14:58.788Z,99.90
2022-10-25T19:17:25.673Z,99.90
2022-10-25T19:19:52.490Z,99.90
2022-10-25T19:22:19.380Z,99.90
2022-10-25T19:24:46.338Z,99.90
2022-10-25T19:27:13.348Z,99.90
2022-10-25T19:29:40.267Z,99.90
2022-10-25T19:32:07.101Z,99.90
2022-10-25T19:34:33.936Z,99.90
2022-10-25T19:37:04.568Z,99.90
2022-10-25T19:39:31.869Z,99.90
2022-10-25T19:41:58.694Z,99.90
2022-10-25T19:44:25.591Z,99.90
2022-10-25T19:46:52.524Z,99.90
2022-10-25T19:49:19.351Z,99.90
2022-10-25T19:51:46.209Z,99.90
2022-10-25T19:54:13.154Z,99.90
2022-10-25T19:56:40.011Z,99.90
2022-10-25T19:59:06.841Z,99.90
2022-10-25T20:01:33.816Z,99.90
2022-10-25T20:04:03.524Z,99.90
2022-10-25T20:06:32.010Z,99.90
2022-10-25T20:08:59.298Z,99.90
2022-10-25T20:11:26.386Z,99.90
2022-10-25T20:13:56.760Z,99.90
2022-10-25T20:16:23.853Z,99.90
2022-10-25T20:18:50.697Z,99.90
2022-10-25T20:21:19.642Z,99.90
2022-10-25T20:23:49.315Z,99.90
2022-10-25T20:26:17.834Z,99.90
2022-10-25T20:28:44.961Z,99.90
2022-10-25T20:31:11.976Z,99.90
2022-10-25T20:33:38.996Z,99.90
2022-10-25T20:36:09.570Z,99.90
2022-10-25T20:38:36.710Z,99.90
2022-10-25T20:41:11.432Z,99.90
2022-10-25T20:43:38.670Z,99.90
2022-10-25T20:46:05.885Z,99.90
2022-10-25T20:48:33.001Z,99.90
2022-10-25T20:51:04.140Z,99.90
2022-10-25T20:53:33.883Z,99.90
2022-10-25T20:56:00.718Z,99.90
2022-10-25T20:58:27.554Z,99.90
2022-10-25T21:00:56.341Z,99.90
2022-10-25T21:03:24.049Z,99.90
2022-10-25T21:05:57.663Z,99.90
2022-10-25T21:08:24.781Z,99.90
2022-10-25T21:10:55.750Z,99.90
2022-10-25T21:13:23.255Z,99.90
2022-10-25T21:15:50.420Z,99.90
2022-10-25T21:18:17.360Z,99.90
2022-10-25T21:20:45.016Z,99.90
2022-10-25T21:23:11.939Z,99.90
2022-10-25T21:25:38.865Z,99.90
2022-10-25T21:28:05.857Z,99.90
2022-10-25T21:30:32.889Z,99.90
2022-10-25T21:32:59.743Z,99.90
2022-10-25T21:35:26.611Z,99.90
2022-10-25T21:37:53.749Z,99.90
2022-10-25T21:40:20.857Z,99.90
2022-10-25T21:42:47.762Z,99.90
2022-10-25T21:45:14.656Z,99.90
2022-10-25T21:47:41.506Z,99.90
2022-10-25T21:50:09.339Z,99.90
2022-10-25T21:52:36.659Z,99.90
2022-10-25T21:55:03.666Z,99.90
2022-10-25T21:57:30.582Z,99.90
2022-10-25T21:59:57.412Z,99.90
2022-10-25T22:02:24.421Z,99.90
2022-10-25T22:04:51.399Z,99.90
2022-10-25T22:07:18.246Z,99.90
2022-10-25T22:09:45.688Z,99.90
2022-10-25T22:12:12.544Z,99.90
2022-10-25T22:14:39.384Z,99.90
2022-10-25T22:17:06.241Z,99.90
2022-10-25T22:19:33.103Z,99.90
2022-10-25T22:21:59.938Z,99.90
2022-10-25T22:24:26.785Z,99.90
2022-10-25T22:26:53.642Z,99.90
2022-10-25T22:29:20.626Z,99.90
2022-10-25T22:31:47.496Z,99.90
2022-10-25T22:34:14.358Z,99.90
2022-10-25T22:36:41.895Z,99.90
2022-10-25T22:39:09.071Z,99.90
2022-10-25T22:41:36.075Z,99.90
2022-10-25T22:44:03.132Z,99.90
2022-10-25T22:46:34.355Z,99.90
2022-10-25T22:49:05.288Z,99.90
2022-10-25T22:51:32.170Z,99.90
2022-10-25T22:53:58.986Z,99.90
2022-10-25T22:56:29.755Z,99.90
2022-10-25T22:58:58.039Z,99.90
2022-10-25T23:01:26.474Z,99.90
2022-10-25T23:03:54.895Z,99.90
2022-10-25T23:06:26.198Z,99.90
2022-10-25T23:08:56.694Z,99.90
2022-10-25T23:11:26.979Z,99.90
2022-10-25T23:13:53.895Z,99.90
2022-10-25T23:16:20.785Z,99.90
2022-10-25T23:18:47.631Z,99.90
2022-10-25T23:21:23.353Z,99.90
2022-10-25T23:23:51.085Z,99.90
2022-10-25T23:26:20.424Z,99.90
2022-10-25T23:28:47.253Z,99.90
2022-10-25T23:31:14.243Z,99.90
2022-10-25T23:33:41.875Z,99.90
2022-10-25T23:36:12.159Z,99.90
2022-10-25T23:38:39.052Z,99.90
2022-10-25T23:41:06.174Z,99.90
2022-10-25T23:43:33.144Z,99.90
2022-10-25T23:46:00.081Z,99.90
2022-10-25T23:48:26.947Z,99.90
2022-10-25T23:51:09.404Z,99.90
2022-10-25T23:53:36.369Z,99.90
2022-10-25T23:56:04.108Z,99.90
2022-10-25T23:58:31.068Z,99.90
